sensor_id;sensor_type;location;lat;lon;timestamp;temperature;humidity
12329;DHT22;6230;52.390;10.256;2023-05-10T00:02:20;17.80;47.10
12329;DHT22;6230;52.390;10.256;2023-05-10T00:04:46;17.70;47.20
12329;DHT22;6230;52.390;10.256;2023-05-10T00:07:11;17.70;47.20
12329;DHT22;6230;52.390;10.256;2023-05-10T00:09:37;17.70;47.40
12329;DHT22;6230;52.390;10.256;2023-05-10T00:12:02;17.70;47.40
12329;DHT22;6230;52.390;10.256;2023-05-10T00:14:28;17.70;47.50
12329;DHT22;6230;52.390;10.256;2023-05-10T00:16:53;17.70;47.50
12329;DHT22;6230;52.390;10.256;2023-05-10T00:19:19;17.70;47.50
12329;DHT22;6230;52.390;10.256;2023-05-10T00:21:45;17.70;47.70
12329;DHT22;6230;52.390;10.256;2023-05-10T00:24:10;17.70;47.80
12329;DHT22;6230;52.390;10.256;2023-05-10T00:26:36;17.70;48.00
12329;DHT22;6230;52.390;10.256;2023-05-10T00:29:01;17.60;48.00
12329;DHT22;6230;52.390;10.256;2023-05-10T00:31:27;17.60;47.90
12329;DHT22;6230;52.390;10.256;2023-05-10T00:33:53;17.60;47.90
12329;DHT22;6230;52.390;10.256;2023-05-10T00:36:18;17.60;48.00
12329;DHT22;6230;52.390;10.256;2023-05-10T00:38:44;17.60;48.00
12329;DHT22;6230;52.390;10.256;2023-05-10T00:41:09;17.60;48.20
12329;DHT22;6230;52.390;10.256;2023-05-10T00:43:35;17.60;48.20
12329;DHT22;6230;52.390;10.256;2023-05-10T00:46:01;17.50;48.30
12329;DHT22;6230;52.390;10.256;2023-05-10T00:48:26;17.50;48.20
12329;DHT22;6230;52.390;10.256;2023-05-10T00:50:53;17.50;48.40
12329;DHT22;6230;52.390;10.256;2023-05-10T00:53:19;17.50;48.50
12329;DHT22;6230;52.390;10.256;2023-05-10T00:55:45;17.50;48.80
12329;DHT22;6230;52.390;10.256;2023-05-10T00:58:10;17.40;48.80
12329;DHT22;6230;52.390;10.256;2023-05-10T01:00:37;17.40;48.90
12329;DHT22;6230;52.390;10.256;2023-05-10T01:03:03;17.40;49.00
12329;DHT22;6230;52.390;10.256;2023-05-10T01:05:29;17.40;49.00
12329;DHT22;6230;52.390;10.256;2023-05-10T01:07:56;17.40;49.30
12329;DHT22;6230;52.390;10.256;2023-05-10T01:10:21;17.30;49.20
12329;DHT22;6230;52.390;10.256;2023-05-10T01:12:47;17.30;49.30
12329;DHT22;6230;52.390;10.256;2023-05-10T01:15:14;17.30;49.50
12329;DHT22;6230;52.390;10.256;2023-05-10T01:17:42;17.20;49.60
12329;DHT22;6230;52.390;10.256;2023-05-10T01:20:10;17.20;49.70
12329;DHT22;6230;52.390;10.256;2023-05-10T01:34:03;17.20;50.00
12329;DHT22;6230;52.390;10.256;2023-05-10T01:36:35;17.10;50.00
12329;DHT22;6230;52.390;10.256;2023-05-10T01:44:34;17.10;50.20
12329;DHT22;6230;52.390;10.256;2023-05-10T01:47:05;17.00;50.20
12329;DHT22;6230;52.390;10.256;2023-05-10T01:49:39;17.00;50.40
12329;DHT22;6230;52.390;10.256;2023-05-10T01:52:12;17.00;50.40
12329;DHT22;6230;52.390;10.256;2023-05-10T01:54:42;17.00;50.50
12329;DHT22;6230;52.390;10.256;2023-05-10T01:57:10;16.90;50.50
12329;DHT22;6230;52.390;10.256;2023-05-10T01:59:40;16.90;50.60
12329;DHT22;6230;52.390;10.256;2023-05-10T02:02:08;16.90;50.70
12329;DHT22;6230;52.390;10.256;2023-05-10T02:04:38;16.90;50.60
12329;DHT22;6230;52.390;10.256;2023-05-10T02:07:05;16.90;50.70
12329;DHT22;6230;52.390;10.256;2023-05-10T02:09:32;16.90;50.80
12329;DHT22;6230;52.390;10.256;2023-05-10T02:12:00;16.90;50.90
12329;DHT22;6230;52.390;10.256;2023-05-10T02:14:29;16.80;50.80
12329;DHT22;6230;52.390;10.256;2023-05-10T02:16:56;16.90;50.80
12329;DHT22;6230;52.390;10.256;2023-05-10T02:19:23;16.90;50.70
12329;DHT22;6230;52.390;10.256;2023-05-10T02:21:50;17.00;50.60
12329;DHT22;6230;52.390;10.256;2023-05-10T02:24:17;17.00;50.60
12329;DHT22;6230;52.390;10.256;2023-05-10T02:26:45;17.00;50.60
12329;DHT22;6230;52.390;10.256;2023-05-10T02:29:12;17.00;50.70
12329;DHT22;6230;52.390;10.256;2023-05-10T02:31:39;16.90;50.70
12329;DHT22;6230;52.390;10.256;2023-05-10T02:34:06;16.90;50.70
12329;DHT22;6230;52.390;10.256;2023-05-10T02:36:33;16.80;50.90
12329;DHT22;6230;52.390;10.256;2023-05-10T02:38:59;16.80;51.10
12329;DHT22;6230;52.390;10.256;2023-05-10T02:41:27;16.70;51.20
12329;DHT22;6230;52.390;10.256;2023-05-10T02:43:57;16.70;51.40
12329;DHT22;6230;52.390;10.256;2023-05-10T02:46:24;16.60;51.50
12329;DHT22;6230;52.390;10.256;2023-05-10T02:48:50;16.60;51.60
12329;DHT22;6230;52.390;10.256;2023-05-10T02:51:16;16.60;51.60
12329;DHT22;6230;52.390;10.256;2023-05-10T02:53:44;16.50;51.70
12329;DHT22;6230;52.390;10.256;2023-05-10T02:56:20;16.50;51.70
12329;DHT22;6230;52.390;10.256;2023-05-10T02:58:47;16.50;51.70
12329;DHT22;6230;52.390;10.256;2023-05-10T03:01:13;16.60;51.60
12329;DHT22;6230;52.390;10.256;2023-05-10T03:03:38;16.60;51.60
12329;DHT22;6230;52.390;10.256;2023-05-10T03:06:04;16.50;51.50
12329;DHT22;6230;52.390;10.256;2023-05-10T03:08:30;16.50;51.70
12329;DHT22;6230;52.390;10.256;2023-05-10T03:14:10;16.50;52.00
12329;DHT22;6230;52.390;10.256;2023-05-10T03:17:11;16.40;52.80
12329;DHT22;6230;52.390;10.256;2023-05-10T03:19:46;16.40;52.30
12329;DHT22;6230;52.390;10.256;2023-05-10T03:22:14;16.30;52.30
12329;DHT22;6230;52.390;10.256;2023-05-10T03:24:45;16.30;52.50
12329;DHT22;6230;52.390;10.256;2023-05-10T03:27:12;16.30;52.50
12329;DHT22;6230;52.390;10.256;2023-05-10T03:29:39;16.30;52.50
12329;DHT22;6230;52.390;10.256;2023-05-10T03:32:05;16.30;52.60
12329;DHT22;6230;52.390;10.256;2023-05-10T03:34:31;16.30;52.70
12329;DHT22;6230;52.390;10.256;2023-05-10T03:36:57;16.20;52.70
12329;DHT22;6230;52.390;10.256;2023-05-10T03:39:22;16.20;52.70
12329;DHT22;6230;52.390;10.256;2023-05-10T03:41:48;16.20;52.80
12329;DHT22;6230;52.390;10.256;2023-05-10T03:44:13;16.20;52.90
12329;DHT22;6230;52.390;10.256;2023-05-10T03:46:39;16.20;52.90
12329;DHT22;6230;52.390;10.256;2023-05-10T03:49:04;16.20;53.00
12329;DHT22;6230;52.390;10.256;2023-05-10T03:51:30;16.20;53.10
12329;DHT22;6230;52.390;10.256;2023-05-10T03:53:56;16.20;53.20
12329;DHT22;6230;52.390;10.256;2023-05-10T03:56:22;16.10;53.30
12329;DHT22;6230;52.390;10.256;2023-05-10T03:58:47;16.10;53.50
12329;DHT22;6230;52.390;10.256;2023-05-10T04:01:13;16.10;53.60
12329;DHT22;6230;52.390;10.256;2023-05-10T04:03:39;16.10;53.60
12329;DHT22;6230;52.390;10.256;2023-05-10T04:06:04;16.10;53.70
12329;DHT22;6230;52.390;10.256;2023-05-10T04:08:31;16.00;53.80
12329;DHT22;6230;52.390;10.256;2023-05-10T04:11:10;16.00;54.00
12329;DHT22;6230;52.390;10.256;2023-05-10T04:13:37;16.00;54.20
12329;DHT22;6230;52.390;10.256;2023-05-10T04:16:04;15.90;54.10
12329;DHT22;6230;52.390;10.256;2023-05-10T04:18:30;15.90;54.20
12329;DHT22;6230;52.390;10.256;2023-05-10T04:20:56;15.90;54.30
12329;DHT22;6230;52.390;10.256;2023-05-10T04:23:22;15.90;54.40
12329;DHT22;6230;52.390;10.256;2023-05-10T04:25:47;15.90;54.50
12329;DHT22;6230;52.390;10.256;2023-05-10T04:28:13;15.90;54.50
12329;DHT22;6230;52.390;10.256;2023-05-10T04:30:39;15.90;54.50
12329;DHT22;6230;52.390;10.256;2023-05-10T04:33:05;15.90;54.50
12329;DHT22;6230;52.390;10.256;2023-05-10T04:35:31;15.90;54.60
12329;DHT22;6230;52.390;10.256;2023-05-10T04:37:56;15.90;54.80
12329;DHT22;6230;52.390;10.256;2023-05-10T04:40:22;15.90;54.90
12329;DHT22;6230;52.390;10.256;2023-05-10T04:42:48;15.80;55.10
12329;DHT22;6230;52.390;10.256;2023-05-10T04:45:13;15.80;55.20
12329;DHT22;6230;52.390;10.256;2023-05-10T04:47:42;15.80;55.20
12329;DHT22;6230;52.390;10.256;2023-05-10T04:50:07;15.80;55.40
12329;DHT22;6230;52.390;10.256;2023-05-10T04:52:33;15.80;55.60
12329;DHT22;6230;52.390;10.256;2023-05-10T04:54:59;15.70;55.60
12329;DHT22;6230;52.390;10.256;2023-05-10T04:57:24;15.70;55.70
12329;DHT22;6230;52.390;10.256;2023-05-10T04:59:50;15.70;56.00
12329;DHT22;6230;52.390;10.256;2023-05-10T05:02:15;15.60;56.10
12329;DHT22;6230;52.390;10.256;2023-05-10T05:04:41;15.60;56.40
12329;DHT22;6230;52.390;10.256;2023-05-10T05:07:06;15.60;56.70
12329;DHT22;6230;52.390;10.256;2023-05-10T05:09:32;15.60;57.00
12329;DHT22;6230;52.390;10.256;2023-05-10T05:11:58;15.60;57.30
12329;DHT22;6230;52.390;10.256;2023-05-10T05:14:23;15.50;57.60
12329;DHT22;6230;52.390;10.256;2023-05-10T05:16:51;15.50;57.80
12329;DHT22;6230;52.390;10.256;2023-05-10T05:19:16;15.50;57.80
12329;DHT22;6230;52.390;10.256;2023-05-10T05:21:42;15.50;58.10
12329;DHT22;6230;52.390;10.256;2023-05-10T05:24:08;15.50;58.20
12329;DHT22;6230;52.390;10.256;2023-05-10T05:26:33;15.50;58.20
12329;DHT22;6230;52.390;10.256;2023-05-10T05:28:59;15.60;58.20
12329;DHT22;6230;52.390;10.256;2023-05-10T05:31:24;15.60;58.40
12329;DHT22;6230;52.390;10.256;2023-05-10T05:33:50;15.60;58.30
12329;DHT22;6230;52.390;10.256;2023-05-10T05:36:16;15.60;58.20
12329;DHT22;6230;52.390;10.256;2023-05-10T05:38:42;15.70;58.30
12329;DHT22;6230;52.390;10.256;2023-05-10T05:41:08;15.70;58.60
12329;DHT22;6230;52.390;10.256;2023-05-10T05:43:33;15.60;58.70
12329;DHT22;6230;52.390;10.256;2023-05-10T05:45:59;15.60;58.70
12329;DHT22;6230;52.390;10.256;2023-05-10T05:48:25;15.60;58.90
12329;DHT22;6230;52.390;10.256;2023-05-10T05:50:54;15.60;59.00
12329;DHT22;6230;52.390;10.256;2023-05-10T05:53:20;15.60;59.30
12329;DHT22;6230;52.390;10.256;2023-05-10T05:55:53;15.60;59.50
12329;DHT22;6230;52.390;10.256;2023-05-10T05:58:20;15.50;59.60
12329;DHT22;6230;52.390;10.256;2023-05-10T06:00:45;15.50;59.70
12329;DHT22;6230;52.390;10.256;2023-05-10T06:03:11;15.50;59.60
12329;DHT22;6230;52.390;10.256;2023-05-10T06:05:37;15.60;59.60
12329;DHT22;6230;52.390;10.256;2023-05-10T06:08:02;15.60;59.80
12329;DHT22;6230;52.390;10.256;2023-05-10T06:10:28;15.60;59.90
12329;DHT22;6230;52.390;10.256;2023-05-10T06:12:53;15.60;60.50
12329;DHT22;6230;52.390;10.256;2023-05-10T06:15:19;15.60;60.50
12329;DHT22;6230;52.390;10.256;2023-05-10T06:17:45;15.60;60.60
12329;DHT22;6230;52.390;10.256;2023-05-10T06:20:12;15.50;60.80
12329;DHT22;6230;52.390;10.256;2023-05-10T06:22:38;15.50;60.90
12329;DHT22;6230;52.390;10.256;2023-05-10T06:25:04;15.60;60.90
12329;DHT22;6230;52.390;10.256;2023-05-10T06:27:29;15.60;60.90
12329;DHT22;6230;52.390;10.256;2023-05-10T06:29:55;15.70;61.00
12329;DHT22;6230;52.390;10.256;2023-05-10T06:32:20;15.70;61.10
12329;DHT22;6230;52.390;10.256;2023-05-10T06:34:46;15.70;61.10
12329;DHT22;6230;52.390;10.256;2023-05-10T06:37:11;15.70;61.10
12329;DHT22;6230;52.390;10.256;2023-05-10T06:39:37;15.70;61.10
12329;DHT22;6230;52.390;10.256;2023-05-10T06:42:03;15.80;61.20
12329;DHT22;6230;52.390;10.256;2023-05-10T06:44:29;15.80;61.30
12329;DHT22;6230;52.390;10.256;2023-05-10T06:46:55;15.80;61.40
12329;DHT22;6230;52.390;10.256;2023-05-10T06:49:21;15.90;61.30
12329;DHT22;6230;52.390;10.256;2023-05-10T06:51:46;15.90;61.50
12329;DHT22;6230;52.390;10.256;2023-05-10T06:54:12;16.00;61.90
12329;DHT22;6230;52.390;10.256;2023-05-10T06:56:38;16.00;62.20
12329;DHT22;6230;52.390;10.256;2023-05-10T06:59:03;16.00;62.10
12329;DHT22;6230;52.390;10.256;2023-05-10T07:01:29;16.00;62.20
12329;DHT22;6230;52.390;10.256;2023-05-10T07:03:54;16.10;62.30
12329;DHT22;6230;52.390;10.256;2023-05-10T07:06:20;16.10;62.40
12329;DHT22;6230;52.390;10.256;2023-05-10T07:08:45;16.10;62.50
12329;DHT22;6230;52.390;10.256;2023-05-10T07:11:11;16.20;62.60
12329;DHT22;6230;52.390;10.256;2023-05-10T07:13:36;16.20;62.70
12329;DHT22;6230;52.390;10.256;2023-05-10T07:16:04;16.10;62.90
12329;DHT22;6230;52.390;10.256;2023-05-10T07:18:31;16.10;63.20
12329;DHT22;6230;52.390;10.256;2023-05-10T07:20:57;16.00;63.50
12329;DHT22;6230;52.390;10.256;2023-05-10T07:23:23;16.00;63.70
12329;DHT22;6230;52.390;10.256;2023-05-10T07:25:49;16.00;63.90
12329;DHT22;6230;52.390;10.256;2023-05-10T07:28:16;16.00;64.10
12329;DHT22;6230;52.390;10.256;2023-05-10T07:30:42;16.00;64.50
12329;DHT22;6230;52.390;10.256;2023-05-10T07:33:09;16.00;64.70
12329;DHT22;6230;52.390;10.256;2023-05-10T07:35:36;16.10;65.00
12329;DHT22;6230;52.390;10.256;2023-05-10T07:38:02;16.20;65.10
12329;DHT22;6230;52.390;10.256;2023-05-10T07:40:28;16.20;65.10
12329;DHT22;6230;52.390;10.256;2023-05-10T07:42:54;16.30;65.30
12329;DHT22;6230;52.390;10.256;2023-05-10T07:45:19;16.30;65.40
12329;DHT22;6230;52.390;10.256;2023-05-10T07:47:45;16.40;65.60
12329;DHT22;6230;52.390;10.256;2023-05-10T07:50:10;16.40;65.80
12329;DHT22;6230;52.390;10.256;2023-05-10T07:52:36;16.40;66.00
12329;DHT22;6230;52.390;10.256;2023-05-10T07:55:02;16.50;66.20
12329;DHT22;6230;52.390;10.256;2023-05-10T07:57:27;16.50;66.40
12329;DHT22;6230;52.390;10.256;2023-05-10T07:59:53;16.60;66.60
12329;DHT22;6230;52.390;10.256;2023-05-10T08:02:18;16.60;66.80
12329;DHT22;6230;52.390;10.256;2023-05-10T08:04:44;16.70;67.10
12329;DHT22;6230;52.390;10.256;2023-05-10T08:07:09;16.70;67.20
12329;DHT22;6230;52.390;10.256;2023-05-10T08:09:36;16.70;67.40
12329;DHT22;6230;52.390;10.256;2023-05-10T08:12:01;16.80;67.60
12329;DHT22;6230;52.390;10.256;2023-05-10T08:14:30;16.80;67.90
12329;DHT22;6230;52.390;10.256;2023-05-10T08:16:56;16.90;68.10
12329;DHT22;6230;52.390;10.256;2023-05-10T08:19:21;16.90;68.20
12329;DHT22;6230;52.390;10.256;2023-05-10T08:21:48;16.90;68.30
12329;DHT22;6230;52.390;10.256;2023-05-10T08:24:13;17.00;68.40
12329;DHT22;6230;52.390;10.256;2023-05-10T08:26:39;17.10;68.50
12329;DHT22;6230;52.390;10.256;2023-05-10T08:29:04;17.20;68.60
12329;DHT22;6230;52.390;10.256;2023-05-10T08:31:30;17.20;68.60
12329;DHT22;6230;52.390;10.256;2023-05-10T08:33:55;17.30;68.80
12329;DHT22;6230;52.390;10.256;2023-05-10T08:36:21;17.40;68.90
12329;DHT22;6230;52.390;10.256;2023-05-10T08:38:50;17.40;68.90
12329;DHT22;6230;52.390;10.256;2023-05-10T08:41:19;17.50;69.00
12329;DHT22;6230;52.390;10.256;2023-05-10T08:43:46;17.50;69.10
12329;DHT22;6230;52.390;10.256;2023-05-10T08:46:16;17.50;69.20
12329;DHT22;6230;52.390;10.256;2023-05-10T08:48:46;17.50;69.50
12329;DHT22;6230;52.390;10.256;2023-05-10T08:51:14;17.50;69.60
12329;DHT22;6230;52.390;10.256;2023-05-10T08:53:40;17.50;69.80
12329;DHT22;6230;52.390;10.256;2023-05-10T08:56:06;17.50;69.80
12329;DHT22;6230;52.390;10.256;2023-05-10T08:58:32;17.50;69.90
12329;DHT22;6230;52.390;10.256;2023-05-10T09:00:59;17.50;70.00
12329;DHT22;6230;52.390;10.256;2023-05-10T09:03:24;17.50;70.30
12329;DHT22;6230;52.390;10.256;2023-05-10T09:05:50;17.50;70.30
12329;DHT22;6230;52.390;10.256;2023-05-10T09:08:16;17.50;70.40
12329;DHT22;6230;52.390;10.256;2023-05-10T09:10:43;17.50;70.40
12329;DHT22;6230;52.390;10.256;2023-05-10T09:13:10;17.40;70.60
12329;DHT22;6230;52.390;10.256;2023-05-10T09:15:37;17.40;70.70
12329;DHT22;6230;52.390;10.256;2023-05-10T09:18:03;17.40;70.80
12329;DHT22;6230;52.390;10.256;2023-05-10T09:20:29;17.40;70.80
12329;DHT22;6230;52.390;10.256;2023-05-10T09:22:54;17.40;70.80
12329;DHT22;6230;52.390;10.256;2023-05-10T09:25:20;17.30;70.80
12329;DHT22;6230;52.390;10.256;2023-05-10T09:27:47;17.40;70.90
12329;DHT22;6230;52.390;10.256;2023-05-10T09:30:17;17.40;71.00
12329;DHT22;6230;52.390;10.256;2023-05-10T09:32:45;17.40;71.10
12329;DHT22;6230;52.390;10.256;2023-05-10T09:35:17;17.40;71.10
12329;DHT22;6230;52.390;10.256;2023-05-10T09:37:50;17.50;71.30
12329;DHT22;6230;52.390;10.256;2023-05-10T09:40:21;17.50;71.30
12329;DHT22;6230;52.390;10.256;2023-05-10T09:42:57;17.50;71.30
12329;DHT22;6230;52.390;10.256;2023-05-10T09:45:25;17.60;71.30
12329;DHT22;6230;52.390;10.256;2023-05-10T09:47:51;17.60;71.20
12329;DHT22;6230;52.390;10.256;2023-05-10T09:50:16;17.60;71.30
12329;DHT22;6230;52.390;10.256;2023-05-10T09:52:50;17.70;71.30
12329;DHT22;6230;52.390;10.256;2023-05-10T09:55:17;17.70;71.40
12329;DHT22;6230;52.390;10.256;2023-05-10T09:57:43;17.70;71.30
12329;DHT22;6230;52.390;10.256;2023-05-10T10:00:09;17.80;71.20
12329;DHT22;6230;52.390;10.256;2023-05-10T10:02:35;17.70;71.00
12329;DHT22;6230;52.390;10.256;2023-05-10T10:05:02;17.70;71.00
12329;DHT22;6230;52.390;10.256;2023-05-10T10:07:29;17.80;71.10
12329;DHT22;6230;52.390;10.256;2023-05-10T10:09:55;17.80;71.10
12329;DHT22;6230;52.390;10.256;2023-05-10T10:12:20;17.70;71.00
12329;DHT22;6230;52.390;10.256;2023-05-10T10:14:47;17.80;71.00
12329;DHT22;6230;52.390;10.256;2023-05-10T10:17:13;17.70;70.90
12329;DHT22;6230;52.390;10.256;2023-05-10T10:19:39;17.70;71.10
12329;DHT22;6230;52.390;10.256;2023-05-10T10:22:05;17.70;71.20
12329;DHT22;6230;52.390;10.256;2023-05-10T10:24:31;17.70;71.40
12329;DHT22;6230;52.390;10.256;2023-05-10T10:27:45;17.60;71.30
12329;DHT22;6230;52.390;10.256;2023-05-10T10:35:18;17.50;71.30
12329;DHT22;6230;52.390;10.256;2023-05-10T10:37:46;17.50;71.50
12329;DHT22;6230;52.390;10.256;2023-05-10T10:40:31;17.50;71.60
12329;DHT22;6230;52.390;10.256;2023-05-10T10:42:57;17.50;72.10
12329;DHT22;6230;52.390;10.256;2023-05-10T10:45:24;17.50;71.80
12329;DHT22;6230;52.390;10.256;2023-05-10T10:48:21;17.50;71.90
12329;DHT22;6230;52.390;10.256;2023-05-10T10:50:46;17.50;72.30
12329;DHT22;6230;52.390;10.256;2023-05-10T10:53:12;17.50;71.90
12329;DHT22;6230;52.390;10.256;2023-05-10T10:55:47;17.40;72.00
12329;DHT22;6230;52.390;10.256;2023-05-10T10:58:29;17.50;72.40
12329;DHT22;6230;52.390;10.256;2023-05-10T11:01:15;17.50;72.40
12329;DHT22;6230;52.390;10.256;2023-05-10T11:03:55;17.50;72.30
12329;DHT22;6230;52.390;10.256;2023-05-10T11:06:31;17.50;72.10
12329;DHT22;6230;52.390;10.256;2023-05-10T11:08:57;17.60;72.30
12329;DHT22;6230;52.390;10.256;2023-05-10T11:11:23;17.60;72.30
12329;DHT22;6230;52.390;10.256;2023-05-10T11:13:49;17.70;72.30
12329;DHT22;6230;52.390;10.256;2023-05-10T11:16:20;17.70;72.30
12329;DHT22;6230;52.390;10.256;2023-05-10T11:18:58;17.80;72.40
12329;DHT22;6230;52.390;10.256;2023-05-10T11:21:25;17.90;72.60
12329;DHT22;6230;52.390;10.256;2023-05-10T11:23:55;17.90;72.20
12329;DHT22;6230;52.390;10.256;2023-05-10T11:26:35;18.00;72.30
12329;DHT22;6230;52.390;10.256;2023-05-10T11:29:01;18.10;72.40
12329;DHT22;6230;52.390;10.256;2023-05-10T11:31:27;18.20;72.00
12329;DHT22;6230;52.390;10.256;2023-05-10T11:33:58;18.30;71.90
12329;DHT22;6230;52.390;10.256;2023-05-10T11:36:27;18.40;71.80
12329;DHT22;6230;52.390;10.256;2023-05-10T11:38:53;18.50;71.60
12329;DHT22;6230;52.390;10.256;2023-05-10T11:41:20;18.60;71.40
12329;DHT22;6230;52.390;10.256;2023-05-10T11:43:52;18.70;71.20
12329;DHT22;6230;52.390;10.256;2023-05-10T11:46:20;18.70;70.80
12329;DHT22;6230;52.390;10.256;2023-05-10T11:48:51;18.80;70.60
12329;DHT22;6230;52.390;10.256;2023-05-10T11:51:21;18.90;70.40
12329;DHT22;6230;52.390;10.256;2023-05-10T11:53:46;18.90;70.30
12329;DHT22;6230;52.390;10.256;2023-05-10T11:56:12;19.00;70.20
12329;DHT22;6230;52.390;10.256;2023-05-10T11:58:38;19.00;70.00
12329;DHT22;6230;52.390;10.256;2023-05-10T12:01:06;19.10;70.00
12329;DHT22;6230;52.390;10.256;2023-05-10T12:03:32;19.20;70.00
12329;DHT22;6230;52.390;10.256;2023-05-10T12:05:59;19.30;69.80
12329;DHT22;6230;52.390;10.256;2023-05-10T12:08:26;19.40;69.40
12329;DHT22;6230;52.390;10.256;2023-05-10T12:10:54;19.30;69.00
12329;DHT22;6230;52.390;10.256;2023-05-10T12:13:29;19.40;68.70
12329;DHT22;6230;52.390;10.256;2023-05-10T12:15:57;19.30;68.50
12329;DHT22;6230;52.390;10.256;2023-05-10T12:18:24;19.30;68.50
12329;DHT22;6230;52.390;10.256;2023-05-10T12:20:52;19.40;68.50
12329;DHT22;6230;52.390;10.256;2023-05-10T12:23:21;19.50;68.50
12329;DHT22;6230;52.390;10.256;2023-05-10T12:25:47;19.50;68.10
12329;DHT22;6230;52.390;10.256;2023-05-10T12:28:12;19.60;68.00
12329;DHT22;6230;52.390;10.256;2023-05-10T12:30:38;19.70;67.90
12329;DHT22;6230;52.390;10.256;2023-05-10T12:35:33;19.90;67.40
12329;DHT22;6230;52.390;10.256;2023-05-10T12:37:58;19.90;67.00
12329;DHT22;6230;52.390;10.256;2023-05-10T12:40:24;19.90;66.80
12329;DHT22;6230;52.390;10.256;2023-05-10T12:42:50;19.90;66.70
12329;DHT22;6230;52.390;10.256;2023-05-10T12:45:17;19.90;66.60
12329;DHT22;6230;52.390;10.256;2023-05-10T12:47:43;19.90;66.40
12329;DHT22;6230;52.390;10.256;2023-05-10T12:50:09;19.90;66.30
12329;DHT22;6230;52.390;10.256;2023-05-10T12:52:34;19.90;66.00
12329;DHT22;6230;52.390;10.256;2023-05-10T12:55:00;20.00;66.10
12329;DHT22;6230;52.390;10.256;2023-05-10T12:57:26;20.00;65.80
12329;DHT22;6230;52.390;10.256;2023-05-10T12:59:53;20.10;65.50
12329;DHT22;6230;52.390;10.256;2023-05-10T13:02:18;20.20;65.30
12329;DHT22;6230;52.390;10.256;2023-05-10T13:04:45;20.30;65.00
12329;DHT22;6230;52.390;10.256;2023-05-10T13:07:11;20.30;64.70
12329;DHT22;6230;52.390;10.256;2023-05-10T13:09:37;20.40;64.50
12329;DHT22;6230;52.390;10.256;2023-05-10T13:12:02;20.50;64.20
12329;DHT22;6230;52.390;10.256;2023-05-10T13:14:29;20.50;63.90
12329;DHT22;6230;52.390;10.256;2023-05-10T13:16:55;20.60;64.10
12329;DHT22;6230;52.390;10.256;2023-05-10T13:19:20;20.60;63.90
12329;DHT22;6230;52.390;10.256;2023-05-10T13:21:46;20.60;63.60
12329;DHT22;6230;52.390;10.256;2023-05-10T13:24:12;20.70;63.50
12329;DHT22;6230;52.390;10.256;2023-05-10T13:26:41;20.70;63.80
12329;DHT22;6230;52.390;10.256;2023-05-10T13:29:07;20.80;62.70
12329;DHT22;6230;52.390;10.256;2023-05-10T13:31:33;20.80;62.80
12329;DHT22;6230;52.390;10.256;2023-05-10T13:33:59;20.80;62.70
12329;DHT22;6230;52.390;10.256;2023-05-10T13:36:24;20.80;62.60
12329;DHT22;6230;52.390;10.256;2023-05-10T13:38:50;20.70;62.40
12329;DHT22;6230;52.390;10.256;2023-05-10T13:41:15;20.70;62.50
12329;DHT22;6230;52.390;10.256;2023-05-10T13:43:41;20.60;62.50
12329;DHT22;6230;52.390;10.256;2023-05-10T13:46:06;20.60;62.30
12329;DHT22;6230;52.390;10.256;2023-05-10T13:48:32;20.60;62.30
12329;DHT22;6230;52.390;10.256;2023-05-10T13:50:57;20.60;62.20
12329;DHT22;6230;52.390;10.256;2023-05-10T13:53:23;20.60;62.10
12329;DHT22;6230;52.390;10.256;2023-05-10T13:55:49;20.60;61.90
12329;DHT22;6230;52.390;10.256;2023-05-10T13:58:14;20.70;62.00
12329;DHT22;6230;52.390;10.256;2023-05-10T14:00:40;20.70;61.90
12329;DHT22;6230;52.390;10.256;2023-05-10T14:03:05;20.80;61.90
12329;DHT22;6230;52.390;10.256;2023-05-10T14:05:32;20.80;61.80
12329;DHT22;6230;52.390;10.256;2023-05-10T14:07:57;20.80;61.70
12329;DHT22;6230;52.390;10.256;2023-05-10T14:10:23;20.70;61.50
12329;DHT22;6230;52.390;10.256;2023-05-10T14:12:49;20.70;61.50
12329;DHT22;6230;52.390;10.256;2023-05-10T14:15:15;20.70;61.50
12329;DHT22;6230;52.390;10.256;2023-05-10T14:17:41;20.70;61.40
12329;DHT22;6230;52.390;10.256;2023-05-10T14:20:06;20.70;61.20
12329;DHT22;6230;52.390;10.256;2023-05-10T14:22:32;20.70;61.30
12329;DHT22;6230;52.390;10.256;2023-05-10T14:24:58;20.60;61.30
12329;DHT22;6230;52.390;10.256;2023-05-10T14:27:23;20.70;61.50
12329;DHT22;6230;52.390;10.256;2023-05-10T14:29:49;20.70;61.60
12329;DHT22;6230;52.390;10.256;2023-05-10T14:32:15;20.70;61.40
12329;DHT22;6230;52.390;10.256;2023-05-10T14:34:40;20.70;61.50
12329;DHT22;6230;52.390;10.256;2023-05-10T14:37:06;20.70;61.50
12329;DHT22;6230;52.390;10.256;2023-05-10T14:39:32;20.70;61.60
12329;DHT22;6230;52.390;10.256;2023-05-10T14:41:58;20.70;61.70
12329;DHT22;6230;52.390;10.256;2023-05-10T14:44:23;20.70;61.50
12329;DHT22;6230;52.390;10.256;2023-05-10T14:46:50;20.70;61.50
12329;DHT22;6230;52.390;10.256;2023-05-10T14:49:16;20.80;61.30
12329;DHT22;6230;52.390;10.256;2023-05-10T14:51:41;20.80;61.00
12329;DHT22;6230;52.390;10.256;2023-05-10T14:54:07;20.90;61.10
12329;DHT22;6230;52.390;10.256;2023-05-10T14:56:32;20.90;61.00
12329;DHT22;6230;52.390;10.256;2023-05-10T14:58:58;20.90;61.00
12329;DHT22;6230;52.390;10.256;2023-05-10T15:01:24;21.00;60.90
12329;DHT22;6230;52.390;10.256;2023-05-10T15:03:50;21.00;60.80
12329;DHT22;6230;52.390;10.256;2023-05-10T15:06:16;21.00;60.60
12329;DHT22;6230;52.390;10.256;2023-05-10T15:08:41;20.90;60.60
12329;DHT22;6230;52.390;10.256;2023-05-10T15:11:07;20.90;60.70
12329;DHT22;6230;52.390;10.256;2023-05-10T15:13:32;20.90;60.60
12329;DHT22;6230;52.390;10.256;2023-05-10T15:15:58;20.90;60.60
12329;DHT22;6230;52.390;10.256;2023-05-10T15:18:24;20.90;60.60
12329;DHT22;6230;52.390;10.256;2023-05-10T15:20:49;20.90;60.60
12329;DHT22;6230;52.390;10.256;2023-05-10T15:23:15;20.90;60.70
12329;DHT22;6230;52.390;10.256;2023-05-10T15:25:41;20.70;60.60
12329;DHT22;6230;52.390;10.256;2023-05-10T15:28:06;20.50;60.90
12329;DHT22;6230;52.390;10.256;2023-05-10T15:30:32;20.40;61.20
12329;DHT22;6230;52.390;10.256;2023-05-10T15:32:57;20.30;61.50
12329;DHT22;6230;52.390;10.256;2023-05-10T15:35:23;20.20;61.70
12329;DHT22;6230;52.390;10.256;2023-05-10T15:37:49;20.10;61.80
12329;DHT22;6230;52.390;10.256;2023-05-10T15:40:15;20.00;62.80
12329;DHT22;6230;52.390;10.256;2023-05-10T15:42:40;20.00;62.20
12329;DHT22;6230;52.390;10.256;2023-05-10T15:45:06;20.00;62.40
12329;DHT22;6230;52.390;10.256;2023-05-10T15:47:32;19.90;62.40
12329;DHT22;6230;52.390;10.256;2023-05-10T15:49:58;19.90;62.60
12329;DHT22;6230;52.390;10.256;2023-05-10T15:52:24;19.90;62.70
12329;DHT22;6230;52.390;10.256;2023-05-10T15:54:50;19.90;62.70
12329;DHT22;6230;52.390;10.256;2023-05-10T15:57:15;19.80;62.80